sensor_id;sensor_type;location;lat;lon;timestamp;P1;durP1;ratioP1;P2;durP2;ratioP2
38937;SDS011;24727;51.974;20.868;2023-08-31T00:00:01;5.97;;;4.93;;
38937;SDS011;24727;51.974;20.868;2023-08-31T00:02:32;7.88;;;5.40;;
38937;SDS011;24727;51.974;20.868;2023-08-31T00:04:59;6.55;;;4.90;;
38937;SDS011;24727;51.974;20.868;2023-08-31T00:07:25;46.40;;;8.90;;
38937;SDS011;24727;51.974;20.868;2023-08-31T00:09:52;5.55;;;4.65;;
38937;SDS011;24727;51.974;20.868;2023-08-31T00:12:19;8.65;;;5.20;;
38937;SDS011;24727;51.974;20.868;2023-08-31T00:14:47;6.00;;;4.43;;
38937;SDS011;24727;51.974;20.868;2023-08-31T00:17:14;8.73;;;4.97;;
38937;SDS011;24727;51.974;20.868;2023-08-31T00:19:41;5.10;;;4.40;;
38937;SDS011;24727;51.974;20.868;2023-08-31T00:22:07;4.53;;;4.07;;
38937;SDS011;24727;51.974;20.868;2023-08-31T00:24:33;4.93;;;4.40;;
38937;SDS011;24727;51.974;20.868;2023-08-31T00:27:04;5.20;;;4.55;;
38937;SDS011;24727;51.974;20.868;2023-08-31T00:29:33;6.68;;;4.57;;
38937;SDS011;24727;51.974;20.868;2023-08-31T00:31:59;9.30;;;5.10;;
38937;SDS011;24727;51.974;20.868;2023-08-31T00:34:26;7.07;;;4.70;;
38937;SDS011;24727;51.974;20.868;2023-08-31T00:36:53;7.78;;;4.82;;
38937;SDS011;24727;51.974;20.868;2023-08-31T00:39:19;6.20;;;5.25;;
38937;SDS011;24727;51.974;20.868;2023-08-31T00:41:46;7.10;;;5.40;;
38937;SDS011;24727;51.974;20.868;2023-08-31T00:44:14;8.60;;;5.13;;
38937;SDS011;24727;51.974;20.868;2023-08-31T00:46:40;9.00;;;5.13;;
38937;SDS011;24727;51.974;20.868;2023-08-31T00:49:07;5.35;;;4.50;;
38937;SDS011;24727;51.974;20.868;2023-08-31T00:51:34;5.55;;;4.60;;
38937;SDS011;24727;51.974;20.868;2023-08-31T00:54:00;8.80;;;5.40;;
38937;SDS011;24727;51.974;20.868;2023-08-31T00:56:28;6.47;;;4.85;;
38937;SDS011;24727;51.974;20.868;2023-08-31T00:58:54;6.03;;;5.40;;
38937;SDS011;24727;51.974;20.868;2023-08-31T01:02:03;7.22;;;5.53;;
38937;SDS011;24727;51.974;20.868;2023-08-31T01:07:16;6.03;;;5.35;;
38937;SDS011;24727;51.974;20.868;2023-08-31T01:10:06;9.98;;;5.40;;
38937;SDS011;24727;51.974;20.868;2023-08-31T01:13:11;10.00;;;6.38;;
38937;SDS011;24727;51.974;20.868;2023-08-31T01:15:45;8.00;;;6.40;;
38937;SDS011;24727;51.974;20.868;2023-08-31T01:18:15;8.05;;;6.93;;
38937;SDS011;24727;51.974;20.868;2023-08-31T01:23:25;8.35;;;6.35;;
38937;SDS011;24727;51.974;20.868;2023-08-31T01:25:59;8.80;;;6.22;;
38937;SDS011;24727;51.974;20.868;2023-08-31T01:28:26;6.90;;;6.20;;
38937;SDS011;24727;51.974;20.868;2023-08-31T01:30:53;6.90;;;5.85;;
38937;SDS011;24727;51.974;20.868;2023-08-31T01:33:19;8.70;;;6.07;;
38937;SDS011;24727;51.974;20.868;2023-08-31T01:35:46;9.10;;;5.75;;
38937;SDS011;24727;51.974;20.868;2023-08-31T01:38:18;6.65;;;5.85;;
38937;SDS011;24727;51.974;20.868;2023-08-31T01:43:19;9.00;;;5.57;;
38937;SDS011;24727;51.974;20.868;2023-08-31T01:45:47;8.00;;;6.00;;
38937;SDS011;24727;51.974;20.868;2023-08-31T01:48:14;6.82;;;6.00;;
38937;SDS011;24727;51.974;20.868;2023-08-31T01:50:42;8.82;;;5.88;;
38937;SDS011;24727;51.974;20.868;2023-08-31T01:53:09;9.73;;;6.25;;
38937;SDS011;24727;51.974;20.868;2023-08-31T01:55:35;10.20;;;6.05;;
38937;SDS011;24727;51.974;20.868;2023-08-31T01:58:02;6.85;;;6.15;;
38937;SDS011;24727;51.974;20.868;2023-08-31T02:00:29;9.77;;;6.00;;
38937;SDS011;24727;51.974;20.868;2023-08-31T02:03:00;8.02;;;6.60;;
38937;SDS011;24727;51.974;20.868;2023-08-31T02:05:26;9.23;;;7.20;;
38937;SDS011;24727;51.974;20.868;2023-08-31T02:07:53;14.63;;;7.15;;
38937;SDS011;24727;51.974;20.868;2023-08-31T02:10:19;11.48;;;6.75;;
38937;SDS011;24727;51.974;20.868;2023-08-31T02:12:45;11.20;;;7.05;;
38937;SDS011;24727;51.974;20.868;2023-08-31T02:15:11;10.27;;;6.75;;
38937;SDS011;24727;51.974;20.868;2023-08-31T02:17:38;12.98;;;6.78;;
38937;SDS011;24727;51.974;20.868;2023-08-31T02:20:04;10.27;;;6.95;;
38937;SDS011;24727;51.974;20.868;2023-08-31T02:22:35;8.25;;;6.50;;
38937;SDS011;24727;51.974;20.868;2023-08-31T02:25:02;8.55;;;6.90;;
38937;SDS011;24727;51.974;20.868;2023-08-31T02:27:28;8.95;;;7.57;;
38937;SDS011;24727;51.974;20.868;2023-08-31T02:29:54;10.07;;;6.32;;
38937;SDS011;24727;51.974;20.868;2023-08-31T02:32:21;11.60;;;6.78;;
38937;SDS011;24727;51.974;20.868;2023-08-31T02:34:47;11.23;;;7.05;;
38937;SDS011;24727;51.974;20.868;2023-08-31T02:37:13;9.63;;;6.68;;
38937;SDS011;24727;51.974;20.868;2023-08-31T02:39:39;10.65;;;7.32;;
38937;SDS011;24727;51.974;20.868;2023-08-31T02:42:07;7.47;;;6.60;;
38937;SDS011;24727;51.974;20.868;2023-08-31T02:44:33;9.88;;;6.05;;
38937;SDS011;24727;51.974;20.868;2023-08-31T02:46:59;8.93;;;6.07;;
38937;SDS011;24727;51.974;20.868;2023-08-31T02:49:25;7.57;;;5.60;;
38937;SDS011;24727;51.974;20.868;2023-08-31T02:51:51;8.73;;;5.93;;
38937;SDS011;24727;51.974;20.868;2023-08-31T02:54:17;6.63;;;5.43;;
38937;SDS011;24727;51.974;20.868;2023-08-31T02:56:44;5.65;;;5.13;;
38937;SDS011;24727;51.974;20.868;2023-08-31T02:59:10;6.75;;;4.50;;
38937;SDS011;24727;51.974;20.868;2023-08-31T03:01:39;6.45;;;5.00;;
38937;SDS011;24727;51.974;20.868;2023-08-31T03:04:05;4.90;;;4.38;;
38937;SDS011;24727;51.974;20.868;2023-08-31T03:06:35;5.43;;;4.13;;
38937;SDS011;24727;51.974;20.868;2023-08-31T03:09:02;4.07;;;3.38;;
38937;SDS011;24727;51.974;20.868;2023-08-31T03:11:30;5.35;;;3.63;;
38937;SDS011;24727;51.974;20.868;2023-08-31T03:13:56;4.30;;;3.63;;
38937;SDS011;24727;51.974;20.868;2023-08-31T03:16:22;5.72;;;3.35;;
38937;SDS011;24727;51.974;20.868;2023-08-31T03:18:49;5.80;;;3.33;;
38937;SDS011;24727;51.974;20.868;2023-08-31T03:21:14;7.70;;;3.30;;
38937;SDS011;24727;51.974;20.868;2023-08-31T03:23:40;3.90;;;2.90;;
38937;SDS011;24727;51.974;20.868;2023-08-31T03:26:08;4.57;;;2.83;;
38937;SDS011;24727;51.974;20.868;2023-08-31T03:28:40;4.93;;;2.92;;
38937;SDS011;24727;51.974;20.868;2023-08-31T03:31:06;3.42;;;2.50;;
38937;SDS011;24727;51.974;20.868;2023-08-31T03:33:32;5.15;;;2.60;;
38937;SDS011;24727;51.974;20.868;2023-08-31T03:36:02;2.78;;;2.58;;
38937;SDS011;24727;51.974;20.868;2023-08-31T03:38:32;3.03;;;2.63;;
38937;SDS011;24727;51.974;20.868;2023-08-31T03:41:02;2.63;;;2.33;;
38937;SDS011;24727;51.974;20.868;2023-08-31T03:43:29;3.95;;;2.42;;
38937;SDS011;24727;51.974;20.868;2023-08-31T03:45:55;5.47;;;2.75;;
38937;SDS011;24727;51.974;20.868;2023-08-31T03:48:22;3.22;;;2.40;;
38937;SDS011;24727;51.974;20.868;2023-08-31T03:50:49;5.63;;;3.05;;
38937;SDS011;24727;51.974;20.868;2023-08-31T03:53:17;5.43;;;2.35;;
38937;SDS011;24727;51.974;20.868;2023-08-31T03:55:43;3.88;;;2.95;;
38937;SDS011;24727;51.974;20.868;2023-08-31T03:58:09;3.38;;;3.05;;
38937;SDS011;24727;51.974;20.868;2023-08-31T04:00:36;6.45;;;2.78;;
38937;SDS011;24727;51.974;20.868;2023-08-31T04:03:05;3.30;;;2.60;;
38937;SDS011;24727;51.974;20.868;2023-08-31T04:05:34;4.18;;;3.00;;
38937;SDS011;24727;51.974;20.868;2023-08-31T04:08:01;4.35;;;3.15;;
38937;SDS011;24727;51.974;20.868;2023-08-31T04:10:30;3.78;;;3.13;;
38937;SDS011;24727;51.974;20.868;2023-08-31T04:12:57;4.05;;;3.65;;
38937;SDS011;24727;51.974;20.868;2023-08-31T04:15:23;3.38;;;3.08;;
38937;SDS011;24727;51.974;20.868;2023-08-31T04:17:49;4.68;;;3.10;;
38937;SDS011;24727;51.974;20.868;2023-08-31T04:20:18;3.97;;;3.15;;
38937;SDS011;24727;51.974;20.868;2023-08-31T04:22:43;3.95;;;3.42;;
38937;SDS011;24727;51.974;20.868;2023-08-31T04:25:09;8.32;;;3.30;;
38937;SDS011;24727;51.974;20.868;2023-08-31T04:27:41;4.10;;;3.70;;
38937;SDS011;24727;51.974;20.868;2023-08-31T04:30:08;4.68;;;3.55;;
38937;SDS011;24727;51.974;20.868;2023-08-31T04:32:34;4.70;;;4.15;;
38937;SDS011;24727;51.974;20.868;2023-08-31T04:35:02;4.88;;;4.20;;
38937;SDS011;24727;51.974;20.868;2023-08-31T04:37:32;6.00;;;5.40;;
38937;SDS011;24727;51.974;20.868;2023-08-31T04:39:58;7.43;;;5.22;;
38937;SDS011;24727;51.974;20.868;2023-08-31T04:42:25;5.35;;;4.70;;
38937;SDS011;24727;51.974;20.868;2023-08-31T04:44:51;7.30;;;5.22;;
38937;SDS011;24727;51.974;20.868;2023-08-31T04:47:17;7.13;;;4.55;;
38937;SDS011;24727;51.974;20.868;2023-08-31T04:49:43;7.80;;;5.60;;
38937;SDS011;24727;51.974;20.868;2023-08-31T04:52:11;6.15;;;4.80;;
38937;SDS011;24727;51.974;20.868;2023-08-31T04:54:38;9.02;;;4.93;;
38937;SDS011;24727;51.974;20.868;2023-08-31T04:57:04;6.47;;;5.53;;
38937;SDS011;24727;51.974;20.868;2023-08-31T04:59:32;6.03;;;5.32;;
38937;SDS011;24727;51.974;20.868;2023-08-31T05:01:59;8.70;;;4.72;;
38937;SDS011;24727;51.974;20.868;2023-08-31T05:04:26;6.15;;;5.30;;
38937;SDS011;24727;51.974;20.868;2023-08-31T05:06:54;10.10;;;4.60;;
38937;SDS011;24727;51.974;20.868;2023-08-31T05:09:26;5.13;;;4.65;;
38937;SDS011;24727;51.974;20.868;2023-08-31T05:11:52;5.50;;;4.22;;
38937;SDS011;24727;51.974;20.868;2023-08-31T05:14:19;5.50;;;4.60;;
38937;SDS011;24727;51.974;20.868;2023-08-31T05:16:45;5.05;;;4.55;;
38937;SDS011;24727;51.974;20.868;2023-08-31T05:19:11;5.07;;;4.57;;
38937;SDS011;24727;51.974;20.868;2023-08-31T05:21:37;5.93;;;4.25;;
38937;SDS011;24727;51.974;20.868;2023-08-31T05:24:04;6.68;;;4.72;;
38937;SDS011;24727;51.974;20.868;2023-08-31T05:26:30;4.82;;;4.38;;
38937;SDS011;24727;51.974;20.868;2023-08-31T05:28:56;6.38;;;4.95;;
38937;SDS011;24727;51.974;20.868;2023-08-31T05:31:22;6.85;;;4.82;;
38937;SDS011;24727;51.974;20.868;2023-08-31T05:33:48;6.93;;;4.57;;
38937;SDS011;24727;51.974;20.868;2023-08-31T05:36:14;6.13;;;4.20;;
38937;SDS011;24727;51.974;20.868;2023-08-31T05:38:40;6.47;;;4.30;;
38937;SDS011;24727;51.974;20.868;2023-08-31T05:41:06;5.75;;;4.40;;
38937;SDS011;24727;51.974;20.868;2023-08-31T05:43:33;5.78;;;4.13;;
38937;SDS011;24727;51.974;20.868;2023-08-31T05:46:00;5.28;;;4.07;;
38937;SDS011;24727;51.974;20.868;2023-08-31T05:48:28;5.32;;;4.30;;
38937;SDS011;24727;51.974;20.868;2023-08-31T05:50:55;7.80;;;4.40;;
38937;SDS011;24727;51.974;20.868;2023-08-31T05:53:23;5.40;;;4.90;;
38937;SDS011;24727;51.974;20.868;2023-08-31T05:55:49;6.05;;;4.72;;
38937;SDS011;24727;51.974;20.868;2023-08-31T05:58:17;7.55;;;4.90;;
38937;SDS011;24727;51.974;20.868;2023-08-31T06:00:43;6.45;;;4.85;;
38937;SDS011;24727;51.974;20.868;2023-08-31T06:03:09;6.00;;;4.50;;
38937;SDS011;24727;51.974;20.868;2023-08-31T06:05:38;5.60;;;4.97;;
38937;SDS011;24727;51.974;20.868;2023-08-31T06:08:04;4.97;;;4.47;;
38937;SDS011;24727;51.974;20.868;2023-08-31T06:10:31;7.13;;;4.80;;
38937;SDS011;24727;51.974;20.868;2023-08-31T06:12:56;8.23;;;4.82;;
38937;SDS011;24727;51.974;20.868;2023-08-31T06:15:24;4.88;;;4.35;;
38937;SDS011;24727;51.974;20.868;2023-08-31T06:17:50;5.13;;;4.60;;
38937;SDS011;24727;51.974;20.868;2023-08-31T06:20:16;6.63;;;4.97;;
38937;SDS011;24727;51.974;20.868;2023-08-31T06:22:42;7.65;;;4.32;;
38937;SDS011;24727;51.974;20.868;2023-08-31T06:25:08;7.93;;;4.32;;
38937;SDS011;24727;51.974;20.868;2023-08-31T06:27:36;5.13;;;4.50;;
38937;SDS011;24727;51.974;20.868;2023-08-31T06:30:03;4.85;;;4.07;;
38937;SDS011;24727;51.974;20.868;2023-08-31T06:32:29;5.03;;;4.53;;
38937;SDS011;24727;51.974;20.868;2023-08-31T06:34:55;6.97;;;4.10;;
38937;SDS011;24727;51.974;20.868;2023-08-31T06:37:21;5.85;;;4.78;;
38937;SDS011;24727;51.974;20.868;2023-08-31T06:39:47;5.53;;;4.63;;
38937;SDS011;24727;51.974;20.868;2023-08-31T06:42:13;6.07;;;4.05;;
38937;SDS011;24727;51.974;20.868;2023-08-31T06:44:40;5.93;;;3.80;;
38937;SDS011;24727;51.974;20.868;2023-08-31T06:47:06;6.60;;;4.90;;
38937;SDS011;24727;51.974;20.868;2023-08-31T06:49:33;8.38;;;4.53;;
38937;SDS011;24727;51.974;20.868;2023-08-31T06:52:00;5.85;;;3.83;;
38937;SDS011;24727;51.974;20.868;2023-08-31T06:54:28;4.32;;;3.55;;
38937;SDS011;24727;51.974;20.868;2023-08-31T06:56:54;5.03;;;2.90;;
38937;SDS011;24727;51.974;20.868;2023-08-31T06:59:20;3.38;;;3.00;;
38937;SDS011;24727;51.974;20.868;2023-08-31T07:01:46;4.18;;;2.95;;
38937;SDS011;24727;51.974;20.868;2023-08-31T07:04:14;3.35;;;3.00;;
38937;SDS011;24727;51.974;20.868;2023-08-31T07:06:39;4.10;;;2.97;;
38937;SDS011;24727;51.974;20.868;2023-08-31T07:09:05;2.95;;;2.65;;
38937;SDS011;24727;51.974;20.868;2023-08-31T07:11:34;3.05;;;2.20;;
38937;SDS011;24727;51.974;20.868;2023-08-31T07:14:00;5.55;;;2.40;;
38937;SDS011;24727;51.974;20.868;2023-08-31T07:16:26;2.55;;;2.30;;
38937;SDS011;24727;51.974;20.868;2023-08-31T07:18:52;2.67;;;2.40;;
38937;SDS011;24727;51.974;20.868;2023-08-31T07:21:18;3.00;;;1.90;;
38937;SDS011;24727;51.974;20.868;2023-08-31T07:23:45;2.50;;;2.30;;
38937;SDS011;24727;51.974;20.868;2023-08-31T07:26:10;2.38;;;1.77;;
38937;SDS011;24727;51.974;20.868;2023-08-31T07:28:36;4.25;;;2.00;;
38937;SDS011;24727;51.974;20.868;2023-08-31T07:31:06;2.85;;;2.05;;
38937;SDS011;24727;51.974;20.868;2023-08-31T07:33:33;2.58;;;2.30;;
38937;SDS011;24727;51.974;20.868;2023-08-31T07:36:01;3.92;;;1.52;;
38937;SDS011;24727;51.974;20.868;2023-08-31T07:38:30;3.47;;;1.65;;
38937;SDS011;24727;51.974;20.868;2023-08-31T07:40:57;4.40;;;1.73;;
38937;SDS011;24727;51.974;20.868;2023-08-31T07:43:24;1.77;;;1.27;;
38937;SDS011;24727;51.974;20.868;2023-08-31T07:45:52;2.70;;;1.30;;
38937;SDS011;24727;51.974;20.868;2023-08-31T07:48:20;4.47;;;2.00;;
38937;SDS011;24727;51.974;20.868;2023-08-31T07:50:46;2.13;;;1.40;;
38937;SDS011;24727;51.974;20.868;2023-08-31T07:53:14;3.13;;;1.30;;
38937;SDS011;24727;51.974;20.868;2023-08-31T07:55:40;3.35;;;1.67;;
38937;SDS011;24727;51.974;20.868;2023-08-31T07:58:06;4.55;;;1.13;;
38937;SDS011;24727;51.974;20.868;2023-08-31T08:00:32;1.75;;;1.30;;
38937;SDS011;24727;51.974;20.868;2023-08-31T08:02:58;2.13;;;1.00;;
38937;SDS011;24727;51.974;20.868;2023-08-31T08:05:25;2.67;;;1.10;;
38937;SDS011;24727;51.974;20.868;2023-08-31T08:07:51;4.07;;;1.15;;
38937;SDS011;24727;51.974;20.868;2023-08-31T08:10:16;2.60;;;1.30;;
38937;SDS011;24727;51.974;20.868;2023-08-31T08:12:43;3.72;;;1.10;;
38937;SDS011;24727;51.974;20.868;2023-08-31T08:15:10;6.25;;;1.88;;
38937;SDS011;24727;51.974;20.868;2023-08-31T08:17:37;6.60;;;1.10;;
38937;SDS011;24727;51.974;20.868;2023-08-31T08:20:06;1.10;;;0.90;;
38937;SDS011;24727;51.974;20.868;2023-08-31T08:22:33;1.17;;;1.00;;
38937;SDS011;24727;51.974;20.868;2023-08-31T08:24:59;1.92;;;1.02;;
38937;SDS011;24727;51.974;20.868;2023-08-31T08:27:27;2.35;;;0.82;;
38937;SDS011;24727;51.974;20.868;2023-08-31T08:29:53;5.38;;;1.10;;
38937;SDS011;24727;51.974;20.868;2023-08-31T08:32:19;2.17;;;1.25;;
38937;SDS011;24727;51.974;20.868;2023-08-31T08:34:46;1.58;;;1.20;;
38937;SDS011;24727;51.974;20.868;2023-08-31T08:37:12;1.42;;;1.10;;
38937;SDS011;24727;51.974;20.868;2023-08-31T08:39:38;0.90;;;0.90;;
38937;SDS011;24727;51.974;20.868;2023-08-31T08:42:04;1.35;;;0.90;;
38937;SDS011;24727;51.974;20.868;2023-08-31T08:44:31;1.30;;;1.20;;
38937;SDS011;24727;51.974;20.868;2023-08-31T08:47:03;6.13;;;1.52;;
38937;SDS011;24727;51.974;20.868;2023-08-31T08:49:30;1.33;;;1.00;;
38937;SDS011;24727;51.974;20.868;2023-08-31T08:51:58;2.30;;;1.20;;
38937;SDS011;24727;51.974;20.868;2023-08-31T08:54:24;1.63;;;1.20;;
38937;SDS011;24727;51.974;20.868;2023-08-31T08:56:53;1.90;;;1.60;;
38937;SDS011;24727;51.974;20.868;2023-08-31T08:59:19;3.65;;;1.80;;
38937;SDS011;24727;51.974;20.868;2023-08-31T09:01:46;1.80;;;1.30;;
38937;SDS011;24727;51.974;20.868;2023-08-31T09:04:12;2.97;;;1.40;;
38937;SDS011;24727;51.974;20.868;2023-08-31T09:06:38;3.15;;;1.33;;
38937;SDS011;24727;51.974;20.868;2023-08-31T09:09:05;2.03;;;1.17;;
38937;SDS011;24727;51.974;20.868;2023-08-31T09:11:34;1.10;;;1.00;;
38937;SDS011;24727;51.974;20.868;2023-08-31T09:14:13;1.83;;;1.50;;
38937;SDS011;24727;51.974;20.868;2023-08-31T09:16:45;4.15;;;1.55;;
38937;SDS011;24727;51.974;20.868;2023-08-31T09:19:23;1.48;;;1.38;;
38937;SDS011;24727;51.974;20.868;2023-08-31T09:21:52;2.53;;;1.60;;
38937;SDS011;24727;51.974;20.868;2023-08-31T09:24:22;2.45;;;1.63;;
38937;SDS011;24727;51.974;20.868;2023-08-31T09:26:55;1.70;;;1.58;;
38937;SDS011;24727;51.974;20.868;2023-08-31T09:29:24;1.80;;;1.63;;
38937;SDS011;24727;51.974;20.868;2023-08-31T09:31:50;2.33;;;1.65;;
38937;SDS011;24727;51.974;20.868;2023-08-31T09:34:17;3.25;;;1.40;;
38937;SDS011;24727;51.974;20.868;2023-08-31T09:36:44;4.00;;;1.33;;
38937;SDS011;24727;51.974;20.868;2023-08-31T09:39:12;3.63;;;1.67;;
38937;SDS011;24727;51.974;20.868;2023-08-31T09:41:54;2.25;;;1.40;;
38937;SDS011;24727;51.974;20.868;2023-08-31T09:44:21;2.28;;;1.48;;
38937;SDS011;24727;51.974;20.868;2023-08-31T09:46:47;2.58;;;1.75;;
38937;SDS011;24727;51.974;20.868;2023-08-31T09:49:14;2.13;;;1.70;;
38937;SDS011;24727;51.974;20.868;2023-08-31T09:51:43;2.55;;;1.60;;
38937;SDS011;24727;51.974;20.868;2023-08-31T09:54:14;2.10;;;1.55;;
38937;SDS011;24727;51.974;20.868;2023-08-31T09:56:43;1.73;;;1.63;;
38937;SDS011;24727;51.974;20.868;2023-08-31T09:59:10;2.70;;;2.10;;
38937;SDS011;24727;51.974;20.868;2023-08-31T10:01:39;2.58;;;2.38;;
38937;SDS011;24727;51.974;20.868;2023-08-31T10:04:06;4.32;;;2.25;;
38937;SDS011;24727;51.974;20.868;2023-08-31T10:06:37;5.65;;;2.42;;
38937;SDS011;24727;51.974;20.868;2023-08-31T10:09:05;2.25;;;2.05;;
38937;SDS011;24727;51.974;20.868;2023-08-31T10:11:32;2.75;;;2.00;;
38937;SDS011;24727;51.974;20.868;2023-08-31T10:13:59;6.03;;;2.42;;
38937;SDS011;24727;51.974;20.868;2023-08-31T10:16:26;3.30;;;2.20;;
38937;SDS011;24727;51.974;20.868;2023-08-31T10:18:52;2.10;;;1.90;;
38937;SDS011;24727;51.974;20.868;2023-08-31T10:21:20;2.28;;;2.03;;
38937;SDS011;24727;51.974;20.868;2023-08-31T10:23:47;3.08;;;2.20;;
38937;SDS011;24727;51.974;20.868;2023-08-31T10:26:31;5.07;;;2.20;;
38937;SDS011;24727;51.974;20.868;2023-08-31T10:28:59;3.30;;;2.40;;
38937;SDS011;24727;51.974;20.868;2023-08-31T10:31:28;2.15;;;1.95;;
38937;SDS011;24727;51.974;20.868;2023-08-31T10:33:58;2.83;;;2.17;;
38937;SDS011;24727;51.974;20.868;2023-08-31T10:36:43;2.10;;;1.90;;
38937;SDS011;24727;51.974;20.868;2023-08-31T10:42:03;4.22;;;2.30;;
38937;SDS011;24727;51.974;20.868;2023-08-31T10:44:32;2.72;;;1.95;;
38937;SDS011;24727;51.974;20.868;2023-08-31T10:47:00;4.10;;;1.92;;
38937;SDS011;24727;51.974;20.868;2023-08-31T10:49:29;2.63;;;1.92;;
38937;SDS011;24727;51.974;20.868;2023-08-31T10:51:57;4.50;;;2.33;;
38937;SDS011;24727;51.974;20.868;2023-08-31T10:54:42;2.88;;;1.90;;
38937;SDS011;24727;51.974;20.868;2023-08-31T10:57:08;3.45;;;2.15;;
38937;SDS011;24727;51.974;20.868;2023-08-31T10:59:49;2.83;;;2.20;;
38937;SDS011;24727;51.974;20.868;2023-08-31T11:02:58;2.42;;;2.22;;
38937;SDS011;24727;51.974;20.868;2023-08-31T11:05:09;6.45;;;2.70;;
38937;SDS011;24727;51.974;20.868;2023-08-31T11:07:36;4.28;;;2.40;;
38937;SDS011;24727;51.974;20.868;2023-08-31T11:10:10;3.75;;;2.20;;
38937;SDS011;24727;51.974;20.868;2023-08-31T11:12:44;3.03;;;2.40;;
38937;SDS011;24727;51.974;20.868;2023-08-31T11:15:12;3.40;;;1.90;;
38937;SDS011;24727;51.974;20.868;2023-08-31T11:17:42;1.90;;;1.80;;
38937;SDS011;24727;51.974;20.868;2023-08-31T11:20:13;4.88;;;2.00;;
38937;SDS011;24727;51.974;20.868;2023-08-31T11:22:42;3.40;;;2.05;;
38937;SDS011;24727;51.974;20.868;2023-08-31T11:25:12;2.55;;;1.75;;
38937;SDS011;24727;51.974;20.868;2023-08-31T11:30:30;2.38;;;1.98;;
38937;SDS011;24727;51.974;20.868;2023-08-31T11:33:05;2.47;;;2.25;;
38937;SDS011;24727;51.974;20.868;2023-08-31T11:35:36;3.30;;;2.03;;
38937;SDS011;24727;51.974;20.868;2023-08-31T11:38:06;2.22;;;2.03;;
38937;SDS011;24727;51.974;20.868;2023-08-31T11:40:32;2.78;;;2.53;;
38937;SDS011;24727;51.974;20.868;2023-08-31T11:42:58;3.08;;;2.60;;
38937;SDS011;24727;51.974;20.868;2023-08-31T11:45:29;4.40;;;2.30;;
38937;SDS011;24727;51.974;20.868;2023-08-31T11:47:56;2.80;;;2.20;;
38937;SDS011;24727;51.974;20.868;2023-08-31T11:50:24;2.25;;;2.05;;
38937;SDS011;24727;51.974;20.868;2023-08-31T11:52:51;2.60;;;2.17;;
38937;SDS011;24727;51.974;20.868;2023-08-31T11:55:18;1.77;;;1.65;;
38937;SDS011;24727;51.974;20.868;2023-08-31T11:57:50;2.35;;;1.98;;
38937;SDS011;24727;51.974;20.868;2023-08-31T12:00:17;2.03;;;1.80;;
38937;SDS011;24727;51.974;20.868;2023-08-31T12:02:44;3.53;;;2.78;;
38937;SDS011;24727;51.974;20.868;2023-08-31T12:05:14;2.17;;;2.08;;
38937;SDS011;24727;51.974;20.868;2023-08-31T12:07:40;4.10;;;1.77;;
38937;SDS011;24727;51.974;20.868;2023-08-31T12:10:07;2.88;;;2.10;;
38937;SDS011;24727;51.974;20.868;2023-08-31T12:12:35;2.53;;;2.33;;
38937;SDS011;24727;51.974;20.868;2023-08-31T12:15:02;2.45;;;1.90;;
38937;SDS011;24727;51.974;20.868;2023-08-31T12:17:36;3.05;;;1.65;;
38937;SDS011;24727;51.974;20.868;2023-08-31T12:20:05;3.50;;;2.38;;
38937;SDS011;24727;51.974;20.868;2023-08-31T12:22:32;12.73;;;2.25;;
38937;SDS011;24727;51.974;20.868;2023-08-31T12:24:59;2.20;;;2.00;;
38937;SDS011;24727;51.974;20.868;2023-08-31T12:27:25;2.95;;;2.05;;
38937;SDS011;24727;51.974;20.868;2023-08-31T12:29:52;2.75;;;2.40;;
38937;SDS011;24727;51.974;20.868;2023-08-31T12:32:18;2.60;;;2.40;;
38937;SDS011;24727;51.974;20.868;2023-08-31T12:34:45;2.63;;;2.30;;
38937;SDS011;24727;51.974;20.868;2023-08-31T12:37:11;2.00;;;1.90;;
38937;SDS011;24727;51.974;20.868;2023-08-31T12:39:39;2.70;;;2.50;;
38937;SDS011;24727;51.974;20.868;2023-08-31T12:42:07;2.53;;;2.17;;
38937;SDS011;24727;51.974;20.868;2023-08-31T12:44:35;3.58;;;2.00;;
38937;SDS011;24727;51.974;20.868;2023-08-31T12:47:02;2.50;;;2.30;;
38937;SDS011;24727;51.974;20.868;2023-08-31T12:49:30;3.08;;;2.55;;
38937;SDS011;24727;51.974;20.868;2023-08-31T12:51:56;2.25;;;2.10;;
38937;SDS011;24727;51.974;20.868;2023-08-31T12:54:21;2.75;;;1.95;;
38937;SDS011;24727;51.974;20.868;2023-08-31T12:56:48;3.17;;;2.40;;
38937;SDS011;24727;51.974;20.868;2023-08-31T12:59:15;3.92;;;2.25;;
38937;SDS011;24727;51.974;20.868;2023-08-31T13:01:42;4.95;;;2.00;;
38937;SDS011;24727;51.974;20.868;2023-08-31T13:04:08;3.55;;;2.40;;
38937;SDS011;24727;51.974;20.868;2023-08-31T13:06:34;6.82;;;2.58;;
38937;SDS011;24727;51.974;20.868;2023-08-31T13:09:00;2.65;;;2.45;;
38937;SDS011;24727;51.974;20.868;2023-08-31T13:11:27;4.65;;;2.35;;
38937;SDS011;24727;51.974;20.868;2023-08-31T13:13:53;2.72;;;2.28;;
38937;SDS011;24727;51.974;20.868;2023-08-31T13:16:21;3.15;;;2.47;;
38937;SDS011;24727;51.974;20.868;2023-08-31T13:18:49;3.22;;;2.92;;
38937;SDS011;24727;51.974;20.868;2023-08-31T13:21:16;3.85;;;2.35;;
38937;SDS011;24727;51.974;20.868;2023-08-31T13:23:42;3.75;;;3.00;;
38937;SDS011;24727;51.974;20.868;2023-08-31T13:26:09;2.78;;;2.58;;
38937;SDS011;24727;51.974;20.868;2023-08-31T13:28:35;4.00;;;2.20;;
38937;SDS011;24727;51.974;20.868;2023-08-31T13:31:01;3.65;;;2.97;;
38937;SDS011;24727;51.974;20.868;2023-08-31T13:33:28;2.72;;;2.53;;
38937;SDS011;24727;51.974;20.868;2023-08-31T13:35:57;2.03;;;1.10;;
38937;SDS011;24727;51.974;20.868;2023-08-31T13:38:24;1.50;;;1.20;;
38937;SDS011;24727;51.974;20.868;2023-08-31T13:40:56;2.28;;;1.38;;
38937;SDS011;24727;51.974;20.868;2023-08-31T13:43:22;2.15;;;1.65;;
38937;SDS011;24727;51.974;20.868;2023-08-31T13:45:55;3.63;;;1.85;;
38937;SDS011;24727;51.974;20.868;2023-08-31T13:48:22;2.35;;;2.15;;
38937;SDS011;24727;51.974;20.868;2023-08-31T13:50:48;4.13;;;1.60;;
38937;SDS011;24727;51.974;20.868;2023-08-31T13:53:15;1.70;;;1.60;;
38937;SDS011;24727;51.974;20.868;2023-08-31T13:55:41;1.85;;;1.67;;
38937;SDS011;24727;51.974;20.868;2023-08-31T13:58:08;1.50;;;1.40;;
38937;SDS011;24727;51.974;20.868;2023-08-31T14:00:34;5.43;;;1.60;;
38937;SDS011;24727;51.974;20.868;2023-08-31T14:03:01;2.33;;;1.40;;
38937;SDS011;24727;51.974;20.868;2023-08-31T14:05:29;1.48;;;1.38;;
38937;SDS011;24727;51.974;20.868;2023-08-31T14:07:56;4.55;;;2.13;;
38937;SDS011;24727;51.974;20.868;2023-08-31T14:10:23;3.55;;;1.60;;
38937;SDS011;24727;51.974;20.868;2023-08-31T14:12:50;1.50;;;1.33;;
38937;SDS011;24727;51.974;20.868;2023-08-31T14:15:16;7.32;;;1.90;;
38937;SDS011;24727;51.974;20.868;2023-08-31T14:17:43;3.17;;;1.58;;
38937;SDS011;24727;51.974;20.868;2023-08-31T14:20:09;1.65;;;1.55;;
38937;SDS011;24727;51.974;20.868;2023-08-31T14:22:37;2.55;;;2.05;;
38937;SDS011;24727;51.974;20.868;2023-08-31T14:25:08;2.60;;;2.40;;
38937;SDS011;24727;51.974;20.868;2023-08-31T14:27:39;4.28;;;3.78;;
38937;SDS011;24727;51.974;20.868;2023-08-31T14:30:05;5.15;;;4.65;;
38937;SDS011;24727;51.974;20.868;2023-08-31T14:32:32;6.00;;;4.55;;
38937;SDS011;24727;51.974;20.868;2023-08-31T14:39:57;5.70;;;4.85;;
38937;SDS011;24727;51.974;20.868;2023-08-31T14:42:24;6.03;;;5.10;;
38937;SDS011;24727;51.974;20.868;2023-08-31T14:44:51;8.48;;;4.45;;
38937;SDS011;24727;51.974;20.868;2023-08-31T14:47:18;8.93;;;4.22;;
38937;SDS011;24727;51.974;20.868;2023-08-31T14:49:44;3.83;;;3.50;;
38937;SDS011;24727;51.974;20.868;2023-08-31T14:52:14;4.15;;;3.75;;
38937;SDS011;24727;51.974;20.868;2023-08-31T14:54:40;3.40;;;3.10;;